Time;durP1;ratioP1;P1;durP2;ratioP2;P2;SDS_P1;SDS_P2;PMS_P1;PMS_P2;Temp;Humidity;BMP_temperature;BMP_pressure;BME280_temperature;BME280_humidity;BME280_pressure;Samples;Min_cycle;Max_cycle;Signal;HPM_P1;HPM_P2
2022/12/23 00:01:48;;;;;;;20.85;19.75;;;14.70;99.90;;;;;;4995705;28;20475;-88
2022/12/23 00:04:14;;;;;;;20.35;19.30;;;14.60;99.90;;;;;;5002992;28;20049;-88
2022/12/23 00:06:40;;;;;;;18.52;17.63;;;14.70;99.90;;;;;;4993749;28;20491;-88
2022/12/23 00:09:06;;;;;;;21.20;19.90;;;14.70;99.90;;;;;;5010478;28;20022;-88
2022/12/23 00:11:32;;;;;;;20.00;18.90;;;14.70;99.90;;;;;;5009355;28;20479;-88
2022/12/23 00:16:43;;;;;;;24.38;22.95;;;14.60;99.90;;;;;;5007864;28;20414;-87
2022/12/23 00:19:09;;;;;;;22.30;20.73;;;14.70;99.90;;;;;;4993976;28;20034;-88
2022/12/23 00:21:35;;;;;;;23.92;22.60;;;14.70;99.90;;;;;;5010673;28;20022;-87
2022/12/23 00:24:01;;;;;;;22.55;21.02;;;14.70;99.90;;;;;;5011165;28;20032;-86
2022/12/23 00:26:27;;;;;;;22.25;20.98;;;14.70;99.90;;;;;;4993852;28;20067;-87
2022/12/23 00:28:57;;;;;;;21.75;20.52;;;14.70;99.90;;;;;;4994021;28;20045;-87
2022/12/23 00:31:23;;;;;;;23.65;22.23;;;14.70;99.90;;;;;;5009528;28;20026;-87
2022/12/23 00:33:50;;;;;;;21.77;20.42;;;14.60;99.90;;;;;;5011952;28;20026;-87
2022/12/23 00:36:20;;;;;;;23.27;21.88;;;14.70;99.90;;;;;;5006826;28;20045;-88
2022/12/23 00:44:16;;;;;;;27.23;25.55;;;14.70;99.90;;;;;;5014593;28;20037;-87
2022/12/23 00:46:42;;;;;;;25.13;23.52;;;14.70;99.90;;;;;;5005771;28;20515;-88
2022/12/23 00:51:55;;;;;;;30.27;27.63;;;14.70;99.90;;;;;;5015509;28;20047;-88
2022/12/23 00:54:21;;;;;;;31.25;29.45;;;14.70;99.90;;;;;;5010874;28;20380;-88
2022/12/23 00:56:47;;;;;;;29.92;28.17;;;14.80;99.90;;;;;;5009913;28;20033;-88
2022/12/23 00:59:13;;;;;;;31.30;29.13;;;14.80;99.90;;;;;;5009558;28;20474;-87
2022/12/23 01:07:09;;;;;;;29.30;27.45;;;14.80;99.90;;;;;;5014502;28;20056;-88
2022/12/23 01:09:35;;;;;;;32.92;30.83;;;14.70;99.90;;;;;;5010929;28;20034;-88
2022/12/23 01:12:01;;;;;;;30.55;28.52;;;14.70;99.90;;;;;;5010073;28;20037;-88
2022/12/23 01:14:27;;;;;;;32.40;29.98;;;14.70;99.90;;;;;;4990355;28;20034;-88
2022/12/23 01:16:53;;;;;;;31.42;29.33;;;14.80;99.90;;;;;;5003653;28;20049;-87
2022/12/23 01:19:19;;;;;;;27.92;26.30;;;14.70;99.90;;;;;;4980239;28;20042;-88
2022/12/23 01:21:45;;;;;;;26.85;24.77;;;14.80;99.90;;;;;;5013209;28;20041;-88
2022/12/23 01:24:11;;;;;;;27.30;25.45;;;14.80;99.90;;;;;;5013664;28;20038;-88
2022/12/23 01:26:37;;;;;;;30.17;28.17;;;14.70;99.90;;;;;;4996262;28;20487;-86
2022/12/23 01:29:04;;;;;;;27.13;24.92;;;14.80;99.90;;;;;;5010860;28;20041;-88
2022/12/23 01:31:30;;;;;;;30.17;28.33;;;14.80;99.90;;;;;;4981144;28;20368;-88
2022/12/23 01:33:56;;;;;;;27.25;25.50;;;14.70;99.90;;;;;;4991995;28;20038;-87
2022/12/23 01:36:22;;;;;;;36.83;34.83;;;14.70;99.90;;;;;;5019248;28;20033;-87
2022/12/23 01:38:48;;;;;;;33.72;31.35;;;14.80;99.90;;;;;;5004870;28;20034;-88
2022/12/23 01:42:42;;;;;;;28.20;26.27;;;14.70;99.90;;;;;;5033155;28;20494;-88
2022/12/23 01:44:02;;;;;;;31.15;29.30;;;14.70;99.90;;;;;;5020647;28;20026;-88
2022/12/23 01:46:28;;;;;;;32.58;30.33;;;14.70;99.90;;;;;;5002930;28;20046;-88
2022/12/23 01:48:54;;;;;;;31.75;29.67;;;14.70;99.90;;;;;;5004015;28;20490;-88
2022/12/23 01:51:26;;;;;;;32.58;30.05;;;14.80;99.90;;;;;;5002128;28;20045;-88
2022/12/23 01:53:57;;;;;;;36.80;34.53;;;14.80;99.90;;;;;;5004462;28;20379;-87
2022/12/23 01:56:28;;;;;;;32.65;30.40;;;14.70;99.90;;;;;;5007293;28;20041;-87
2022/12/23 01:58:57;;;;;;;38.55;36.00;;;14.80;99.90;;;;;;5019811;28;20042;-87
2022/12/23 02:04:10;;;;;;;37.28;35.05;;;14.80;99.90;;;;;;5004098;28;20061;-87
2022/12/23 02:09:25;;;;;;;39.85;37.33;;;14.80;99.90;;;;;;4977979;28;20511;-88
2022/12/23 02:12:20;;;;;;;35.83;33.47;;;14.70;99.90;;;;;;5004949;28;20034;-88
2022/12/23 02:18:30;;;;;;;38.10;35.55;;;14.70;99.90;;;;;;4996896;28;20371;-88
2022/12/23 02:21:31;;;;;;;34.42;32.13;;;14.80;99.90;;;;;;5008134;28;20046;-87
2022/12/23 02:24:10;;;;;;;37.85;35.25;;;14.70;99.90;;;;;;4998742;28;20479;-88
2022/12/23 02:26:48;;;;;;;37.22;34.47;;;14.70;99.90;;;;;;4994360;28;20053;-88
2022/12/23 02:29:26;;;;;;;40.17;37.47;;;14.80;99.90;;;;;;4994205;28;20034;-88
2022/12/23 02:32:06;;;;;;;34.85;32.47;;;14.80;99.90;;;;;;5010692;28;20138;-88
2022/12/23 02:34:56;;;;;;;39.60;36.83;;;14.80;99.90;;;;;;4989306;28;20034;-88
2022/12/23 02:37:34;;;;;;;35.60;32.90;;;14.70;99.90;;;;;;4987391;28;20506;-88
2022/12/23 02:40:25;;;;;;;35.08;32.35;;;14.70;99.90;;;;;;4972281;28;20185;-88
2022/12/23 02:42:54;;;;;;;36.45;33.85;;;14.80;99.90;;;;;;4960771;28;20046;-88
2022/12/23 02:45:45;;;;;;;37.97;35.20;;;14.80;99.90;;;;;;5009396;28;20057;-87
2022/12/23 02:48:35;;;;;;;37.88;35.22;;;14.80;99.90;;;;;;5010774;28;20042;-88
2022/12/23 02:51:01;;;;;;;32.72;30.40;;;14.80;99.90;;;;;;5009786;28;20052;-88
2022/12/23 02:53:31;;;;;;;38.45;35.63;;;14.70;99.90;;;;;;4978776;28;20034;-87
2022/12/23 02:55:57;;;;;;;37.05;34.25;;;14.70;99.90;;;;;;5006276;28;20030;-88
2022/12/23 02:58:26;;;;;;;39.20;36.10;;;14.70;99.90;;;;;;5024439;28;20026;-88
2022/12/23 03:00:52;;;;;;;37.25;34.22;;;14.70;99.90;;;;;;5013869;28;20110;-87
2022/12/23 03:03:19;;;;;;;41.15;38.33;;;14.80;99.90;;;;;;5004702;28;20049;-87
2022/12/23 03:05:46;;;;;;;34.83;32.22;;;14.80;99.90;;;;;;5008091;28;20041;-88
2022/12/23 03:08:18;;;;;;;36.80;33.65;;;14.70;99.90;;;;;;4987490;28;20034;-88
2022/12/23 03:11:06;;;;;;;36.80;34.13;;;14.70;99.90;;;;;;5008616;28;20034;-87
2022/12/23 03:14:04;;;;;;;37.58;34.70;;;14.80;99.90;;;;;;5010311;28;20383;-88
2022/12/23 03:16:59;;;;;;;34.83;32.38;;;14.80;99.90;;;;;;5001021;28;20041;-88
2022/12/23 03:19:55;;;;;;;31.75;29.30;;;14.80;99.90;;;;;;5009608;28;20040;-88
2022/12/23 03:22:42;;;;;;;31.58;29.20;;;14.80;99.90;;;;;;5008758;28;20281;-87
2022/12/23 03:25:31;;;;;;;30.15;27.95;;;14.80;99.90;;;;;;5009153;28;20037;-88
2022/12/23 03:28:07;;;;;;;30.85;28.35;;;14.80;99.90;;;;;;5010270;28;20048;-87
2022/12/23 03:30:33;;;;;;;32.50;29.75;;;14.70;99.90;;;;;;4990622;28;20554;-88
2022/12/23 03:33:22;;;;;;;32.35;30.20;;;14.70;99.90;;;;;;4969481;28;20328;-88
2022/12/23 03:36:05;;;;;;;36.53;33.97;;;14.80;99.90;;;;;;4998544;28;20057;-88
2022/12/23 03:38:31;;;;;;;31.90;29.67;;;14.80;99.90;;;;;;4990394;28;20045;-87
2022/12/23 03:41:00;;;;;;;39.17;36.47;;;14.80;99.90;;;;;;5009860;28;20041;-87
2022/12/23 03:43:52;;;;;;;39.42;36.65;;;14.70;99.90;;;;;;4994131;28;20034;-87
2022/12/23 03:46:58;;;;;;;35.47;33.08;;;14.80;99.90;;;;;;5010489;28;20042;-87
2022/12/23 03:49:37;;;;;;;36.55;33.92;;;14.80;99.90;;;;;;5011533;28;20049;-87
2022/12/23 03:52:16;;;;;;;35.90;33.20;;;14.80;99.90;;;;;;4993949;28;20042;-87
2022/12/23 03:54:48;;;;;;;35.03;32.85;;;14.80;99.90;;;;;;4991351;28;20038;-87
2022/12/23 03:57:14;;;;;;;34.33;32.17;;;14.80;99.90;;;;;;4990450;28;20101;-87
2022/12/23 03:59:44;;;;;;;37.03;34.67;;;14.80;99.90;;;;;;4992862;28;20471;-87
2022/12/23 04:02:16;;;;;;;38.30;35.78;;;14.80;99.90;;;;;;4993060;28;20034;-87
2022/12/23 04:04:51;;;;;;;39.28;36.88;;;14.70;99.90;;;;;;5015043;28;20049;-87
2022/12/23 04:07:22;;;;;;;38.33;35.97;;;14.80;99.90;;;;;;5006806;28;20042;-88
2022/12/23 04:09:49;;;;;;;36.15;34.03;;;14.80;99.90;;;;;;4991358;28;20027;-88
2022/12/23 04:12:15;;;;;;;41.92;39.17;;;14.80;99.90;;;;;;4976949;28;20038;-88
2022/12/23 04:14:46;;;;;;;39.35;37.03;;;14.70;99.90;;;;;;4975244;28;20372;-88
2022/12/23 04:17:12;;;;;;;37.42;35.45;;;14.70;99.90;;;;;;4991765;28;20038;-89
2022/12/23 04:19:38;;;;;;;37.53;35.30;;;14.80;99.90;;;;;;4994622;28;20037;-88
2022/12/23 04:22:04;;;;;;;41.20;38.95;;;14.80;99.90;;;;;;5008903;28;20034;-88
2022/12/23 04:24:31;;;;;;;40.92;38.42;;;14.80;99.90;;;;;;5010845;28;20383;-88
2022/12/23 04:26:57;;;;;;;42.78;40.33;;;14.90;99.90;;;;;;5010126;28;20052;-88
2022/12/23 04:29:23;;;;;;;38.67;36.05;;;14.90;99.90;;;;;;5008802;28;20029;-89
2022/12/23 04:31:49;;;;;;;38.65;36.53;;;14.80;99.90;;;;;;5011161;28;20186;-88
2022/12/23 04:34:15;;;;;;;40.42;37.85;;;14.80;99.90;;;;;;5010849;28;20042;-88
2022/12/23 04:36:41;;;;;;;41.65;39.25;;;14.80;99.90;;;;;;4993257;28;20383;-88
2022/12/23 04:39:08;;;;;;;36.33;34.33;;;14.80;99.90;;;;;;4995171;28;20125;-89
2022/12/23 04:41:34;;;;;;;39.65;37.33;;;14.70;99.90;;;;;;4978227;28;20042;-88
2022/12/23 04:44:00;;;;;;;39.47;37.30;;;14.70;99.90;;;;;;5010838;28;20034;-88
2022/12/23 04:46:26;;;;;;;40.72;38.50;;;14.70;99.90;;;;;;4993552;28;20041;-88
2022/12/23 04:48:52;;;;;;;39.00;36.53;;;14.70;99.90;;;;;;4992408;28;20478;-89
2022/12/23 04:51:18;;;;;;;40.15;37.88;;;14.70;99.90;;;;;;5012542;28;20025;-89
2022/12/23 04:53:44;;;;;;;37.15;35.25;;;14.80;99.90;;;;;;5014932;28;20493;-89
2022/12/23 04:56:10;;;;;;;46.83;38.83;;;14.70;99.90;;;;;;5013786;28;20029;-91
2022/12/23 04:58:37;;;;;;;32.97;30.70;;;14.80;99.90;;;;;;5010285;28;20477;-88
2022/12/23 05:01:07;;;;;;;30.85;29.15;;;14.70;99.90;;;;;;5012014;28;20044;-87
2022/12/23 05:03:33;;;;;;;28.98;27.25;;;14.70;99.90;;;;;;5003984;28;20026;-87
2022/12/23 05:05:59;;;;;;;30.52;28.80;;;14.70;99.90;;;;;;4979687;28;20046;-86
2022/12/23 05:08:26;;;;;;;28.33;26.75;;;14.70;99.90;;;;;;5013356;28;20057;-87
2022/12/23 05:10:52;;;;;;;27.23;25.63;;;14.70;99.90;;;;;;5014193;28;20042;-88
2022/12/23 05:13:18;;;;;;;30.55;28.75;;;14.70;99.90;;;;;;5015098;28;20493;-88
2022/12/23 05:15:44;;;;;;;29.60;28.02;;;14.70;99.90;;;;;;4999624;28;20030;-88
2022/12/23 05:18:11;;;;;;;27.38;25.42;;;14.70;99.90;;;;;;5018385;28;20483;-89
2022/12/23 05:20:37;;;;;;;27.60;25.85;;;14.70;99.90;;;;;;5020738;28;20049;-88
2022/12/23 05:23:03;;;;;;;29.20;27.35;;;14.70;99.90;;;;;;4999172;28;20035;-88
2022/12/23 05:25:31;;;;;;;25.83;24.10;;;14.70;99.90;;;;;;5001318;28;20034;-88
2022/12/23 05:27:57;;;;;;;27.30;25.30;;;14.70;99.90;;;;;;5013545;28;20041;-89
2022/12/23 05:30:23;;;;;;;30.27;28.05;;;14.60;99.90;;;;;;5019362;28;20475;-89
2022/12/23 05:32:53;;;;;;;26.75;24.63;;;14.70;99.90;;;;;;4985675;28;20035;-87
2022/12/23 05:35:19;;;;;;;27.35;24.80;;;14.70;99.90;;;;;;5018743;28;20025;-88
2022/12/23 05:37:45;;;;;;;25.98;23.83;;;14.70;99.90;;;;;;5003534;28;20030;-90
2022/12/23 05:40:11;;;;;;;25.63;23.25;;;14.70;99.90;;;;;;5017583;28;20045;-90
2022/12/23 05:42:37;;;;;;;25.45;22.80;;;14.70;99.90;;;;;;5013863;28;20031;-86
2022/12/23 05:45:04;;;;;;;25.23;22.65;;;14.70;99.90;;;;;;5012199;28;20056;-86
2022/12/23 05:47:30;;;;;;;25.85;22.63;;;14.80;99.90;;;;;;5013983;28;20048;-88
2022/12/23 05:49:56;;;;;;;25.63;23.25;;;14.80;99.90;;;;;;5012953;28;20034;-87
2022/12/23 05:52:22;;;;;;;26.48;24.00;;;14.70;99.90;;;;;;4991712;28;20046;-88
2022/12/23 05:54:48;;;;;;;27.35;24.63;;;14.80;99.90;;;;;;4997342;28;20057;-88
2022/12/23 05:57:14;;;;;;;30.73;28.15;;;14.80;99.90;;;;;;5015973;28;20034;-88
2022/12/23 05:59:40;;;;;;;30.00;27.25;;;14.80;99.90;;;;;;5014872;28;20034;-87
2022/12/23 06:02:06;;;;;;;30.10;27.50;;;14.80;99.90;;;;;;5011989;28;20030;-87
2022/12/23 06:04:33;;;;;;;29.30;27.17;;;14.80;99.90;;;;;;5013596;28;20056;-87
2022/12/23 06:06:59;;;;;;;30.33;27.75;;;14.70;99.90;;;;;;5028861;28;20046;-87
2022/12/23 06:09:25;;;;;;;27.90;25.92;;;14.80;99.90;;;;;;4996673;28;20101;-88
2022/12/23 06:11:51;;;;;;;30.67;28.00;;;14.80;99.90;;;;;;4990624;28;20049;-90
2022/12/23 06:14:17;;;;;;;32.08;29.50;;;14.70;99.90;;;;;;5014384;28;20045;-90
2022/12/23 06:16:43;;;;;;;31.70;28.60;;;14.80;99.90;;;;;;5004874;28;20026;-90
2022/12/23 06:19:09;;;;;;;30.08;27.48;;;14.80;99.90;;;;;;5004898;28;20049;-89
2022/12/23 06:21:35;;;;;;;32.03;29.55;;;14.70;99.90;;;;;;5021162;28;20038;-88
2022/12/23 06:24:02;;;;;;;31.08;28.70;;;14.80;99.90;;;;;;5020318;28;20037;-88
2022/12/23 06:26:28;;;;;;;31.00;28.77;;;14.70;99.90;;;;;;5020906;28;20036;-88
2022/12/23 06:28:54;;;;;;;31.55;29.35;;;14.70;99.90;;;;;;5003325;28;20049;-88
2022/12/23 06:31:20;;;;;;;31.83;29.63;;;14.80;99.90;;;;;;5020794;28;20029;-87
2022/12/23 06:33:46;;;;;;;33.13;30.58;;;14.80;99.90;;;;;;5020968;28;20049;-88
2022/12/23 06:36:12;;;;;;;34.33;31.88;;;14.80;99.90;;;;;;5018345;28;20026;-88
2022/12/23 06:38:38;;;;;;;33.53;31.15;;;14.80;99.90;;;;;;5019099;28;20049;-88
2022/12/23 06:41:04;;;;;;;33.38;30.55;;;14.80;99.90;;;;;;5013821;28;20037;-88
2022/12/23 06:43:30;;;;;;;33.20;30.52;;;14.80;99.90;;;;;;4979801;28;20038;-87
2022/12/23 06:45:56;;;;;;;36.58;34.03;;;14.80;99.90;;;;;;5012133;28;20041;-87
2022/12/23 06:48:22;;;;;;;36.63;34.15;;;14.80;99.90;;;;;;5012632;28;20042;-86
2022/12/23 06:50:48;;;;;;;36.03;33.25;;;14.80;99.90;;;;;;4994143;28;20042;-87
2022/12/23 06:53:14;;;;;;;31.65;29.67;;;14.80;99.90;;;;;;5013514;28;20042;-86
2022/12/23 06:55:41;;;;;;;30.95;28.02;;;14.80;99.90;;;;;;4996222;28;20030;-87
2022/12/23 06:58:07;;;;;;;32.15;29.33;;;14.80;99.90;;;;;;5008465;28;20065;-88
2022/12/23 07:00:33;;;;;;;30.95;28.13;;;14.80;99.90;;;;;;4979226;28;20034;-87
2022/12/23 07:02:59;;;;;;;36.80;33.45;;;14.90;99.90;;;;;;4976430;28;20089;-86
2022/12/23 07:05:25;;;;;;;31.42;28.92;;;14.80;99.90;;;;;;4987261;28;20049;-87
2022/12/23 07:07:51;;;;;;;32.58;29.63;;;14.80;99.90;;;;;;4995874;28;20034;-87
2022/12/23 07:10:17;;;;;;;34.15;31.20;;;14.80;99.90;;;;;;5011852;28;20029;-87
2022/12/23 07:12:43;;;;;;;32.78;29.27;;;14.90;99.90;;;;;;5012814;28;20066;-88
2022/12/23 07:15:09;;;;;;;32.35;28.77;;;14.90;99.90;;;;;;5011299;28;20038;-87
2022/12/23 07:17:35;;;;;;;29.98;27.20;;;14.80;99.90;;;;;;4995520;28;20037;-86
2022/12/23 07:20:02;;;;;;;30.35;27.23;;;14.80;99.90;;;;;;5012727;28;20364;-90
2022/12/23 07:22:28;;;;;;;32.17;28.98;;;14.80;99.90;;;;;;4995417;28;20037;-88
2022/12/23 07:24:54;;;;;;;32.33;29.08;;;14.80;99.90;;;;;;5012657;28;20030;-88
2022/12/23 07:27:20;;;;;;;30.75;27.88;;;14.80;99.90;;;;;;4992943;28;20053;-87
2022/12/23 07:29:47;;;;;;;34.15;31.10;;;14.80;99.90;;;;;;5012124;28;20029;-87
2022/12/23 07:32:13;;;;;;;30.85;28.23;;;14.80;99.90;;;;;;5010870;28;20041;-87
2022/12/23 07:34:39;;;;;;;31.42;28.65;;;14.80;99.90;;;;;;4980910;28;20034;-86
2022/12/23 07:37:05;;;;;;;32.13;29.33;;;14.80;99.90;;;;;;5002779;28;20472;-89
2022/12/23 07:39:31;;;;;;;32.08;29.02;;;14.80;99.90;;;;;;4994648;28;20471;-88
2022/12/23 07:41:57;;;;;;;30.98;27.67;;;14.80;99.90;;;;;;5006379;28;20042;-87
2022/12/23 07:44:23;;;;;;;30.20;27.67;;;14.80;99.90;;;;;;4995287;28;20434;-89
2022/12/23 07:46:49;;;;;;;30.00;27.55;;;14.80;99.90;;;;;;4995528;28;20041;-86
2022/12/23 07:49:15;;;;;;;31.60;28.65;;;14.80;99.90;;;;;;4994667;28;20049;-87
2022/12/23 07:51:41;;;;;;;32.75;29.88;;;14.70;99.90;;;;;;4993115;28;20030;-87
2022/12/23 07:54:07;;;;;;;31.50;29.20;;;14.80;99.90;;;;;;4994596;28;20045;-86
2022/12/23 07:56:33;;;;;;;31.50;29.05;;;14.80;99.90;;;;;;4989125;28;20499;-86
2022/12/23 07:59:00;;;;;;;33.17;30.50;;;14.80;99.90;;;;;;5024989;28;20030;-90
2022/12/23 08:01:26;;;;;;;32.13;28.70;;;14.70;99.90;;;;;;4995961;28;20403;-88
2022/12/23 08:03:52;;;;;;;30.10;27.42;;;14.70;99.90;;;;;;5006609;28;20026;-91
2022/12/23 08:06:18;;;;;;;31.20;28.23;;;14.70;99.90;;;;;;4995806;28;20034;-92
2022/12/23 08:08:44;;;;;;;30.55;27.58;;;14.70;99.90;;;;;;5031927;28;20040;-91
2022/12/23 08:11:11;;;;;;;30.80;28.38;;;14.70;99.90;;;;;;5010943;28;20038;-87
2022/12/23 08:13:38;;;;;;;34.13;30.83;;;14.70;99.90;;;;;;4993142;28;20037;-89
2022/12/23 08:16:05;;;;;;;31.55;28.73;;;14.70;99.90;;;;;;4973309;28;20030;-91
2022/12/23 08:18:33;;;;;;;31.20;28.25;;;14.70;99.90;;;;;;4997144;28;20057;-91
2022/12/23 08:21:01;;;;;;;32.28;29.52;;;14.70;99.90;;;;;;5006201;28;20035;-87
2022/12/23 08:23:27;;;;;;;34.33;31.08;;;14.70;99.90;;;;;;5010839;28;20066;-88
2022/12/23 08:26:04;;;;;;;34.40;31.35;;;14.70;99.90;;;;;;5022435;28;20026;-90
2022/12/23 08:28:31;;;;;;;32.60;29.58;;;14.70;99.90;;;;;;5010808;28;20041;-88
2022/12/23 08:31:10;;;;;;;30.00;27.10;;;14.70;99.90;;;;;;4979066;28;20419;-91
2022/12/23 08:33:37;;;;;;;35.33;32.50;;;14.60;99.90;;;;;;4995220;28;20031;-88
2022/12/23 08:36:03;;;;;;;36.88;34.13;;;14.70;99.90;;;;;;4988698;28;20463;-89
2022/12/23 08:38:30;;;;;;;33.75;30.75;;;14.70;99.90;;;;;;5011807;28;20069;-88
2022/12/23 08:40:56;;;;;;;30.88;28.70;;;14.60;99.90;;;;;;5015061;28;20387;-86
2022/12/23 08:43:22;;;;;;;28.90;26.30;;;14.70;99.90;;;;;;4998478;28;20383;-88
2022/12/23 08:45:48;;;;;;;29.23;27.20;;;14.70;99.90;;;;;;5014499;28;20034;-86
2022/12/23 08:48:14;;;;;;;29.33;26.88;;;14.70;99.90;;;;;;5011453;28;20109;-89
2022/12/23 08:50:41;;;;;;;31.55;28.83;;;14.70;99.90;;;;;;4998003;28;20472;-90
2022/12/23 08:53:07;;;;;;;30.15;28.00;;;14.80;99.90;;;;;;5013064;28;20041;-87
2022/12/23 08:55:41;;;;;;;28.77;26.42;;;14.70;99.90;;;;;;5014253;28;20038;-89
2022/12/23 08:58:07;;;;;;;27.98;25.80;;;14.70;99.90;;;;;;4998703;28;20036;-89
2022/12/23 09:00:34;;;;;;;33.15;30.60;;;14.70;99.90;;;;;;4997974;28;20049;-88
2022/12/23 09:03:00;;;;;;;28.85;26.70;;;14.70;99.90;;;;;;5012327;28;20030;-88
2022/12/23 09:05:26;;;;;;;32.45;29.98;;;14.60;99.90;;;;;;5012641;28;20069;-87
2022/12/23 09:07:52;;;;;;;29.30;27.17;;;14.70;99.90;;;;;;4998337;28;20034;-88
2022/12/23 09:10:19;;;;;;;30.75;28.25;;;14.70;99.90;;;;;;4995979;28;20437;-88
2022/12/23 09:12:45;;;;;;;32.67;29.85;;;14.70;99.90;;;;;;5012256;28;20038;-88
2022/12/23 09:15:11;;;;;;;31.73;29.33;;;14.70;99.90;;;;;;5014045;28;20048;-88
2022/12/23 09:17:37;;;;;;;34.10;31.13;;;14.70;99.90;;;;;;5014433;28;20387;-84
2022/12/23 09:20:03;;;;;;;33.05;30.67;;;14.60;99.90;;;;;;5012101;28;20045;-85
2022/12/23 09:22:31;;;;;;;34.10;31.42;;;14.60;99.90;;;;;;4997097;28;20038;-85
2022/12/23 09:24:57;;;;;;;35.30;32.58;;;14.70;99.90;;;;;;4997338;28;20045;-85
2022/12/23 09:27:24;;;;;;;33.75;30.85;;;14.70;99.90;;;;;;4994640;28;20025;-88
2022/12/23 09:29:50;;;;;;;33.33;30.95;;;14.70;99.90;;;;;;4995695;28;20050;-88
2022/12/23 09:32:16;;;;;;;32.83;30.08;;;14.70;99.90;;;;;;5030015;28;20034;-86
2022/12/23 09:34:42;;;;;;;34.33;31.23;;;14.70;99.90;;;;;;5019653;28;20037;-87
2022/12/23 09:37:08;;;;;;;36.50;33.35;;;14.70;99.90;;;;;;5012541;28;20036;-88
2022/12/23 09:39:34;;;;;;;31.17;28.20;;;14.70;99.90;;;;;;5015485;28;20031;-91
2022/12/23 09:42:21;;;;;;;38.88;30.45;;;14.60;99.90;;;;;;5011355;28;20053;-90
2022/12/23 09:45:15;;;;;;;28.35;25.45;;;14.70;99.90;;;;;;5013569;28;20041;-87
2022/12/23 09:47:41;;;;;;;29.35;25.88;;;14.70;99.90;;;;;;5012605;28;20046;-87
2022/12/23 09:50:18;;;;;;;30.55;26.63;;;14.70;99.90;;;;;;5010292;28;20046;-89
2022/12/23 09:52:46;;;;;;;31.35;28.55;;;14.70;99.90;;;;;;5004221;28;20038;-89
2022/12/23 09:55:12;;;;;;;37.40;30.73;;;14.70;99.90;;;;;;5010990;28;20376;-88
2022/12/23 09:57:45;;;;;;;35.63;31.33;;;14.70;99.90;;;;;;5012194;28;20045;-87
2022/12/23 10:00:13;;;;;;;34.67;31.85;;;14.70;99.90;;;;;;4996601;28;20041;-90
2022/12/23 10:02:39;;;;;;;32.45;29.35;;;14.70;99.90;;;;;;4991742;28;20029;-87
2022/12/23 10:05:14;;;;;;;28.83;26.23;;;14.60;99.90;;;;;;5008984;28;20399;-86
2022/12/23 10:07:54;;;;;;;30.25;27.90;;;14.70;99.90;;;;;;5012626;28;20058;-87
2022/12/23 10:10:34;;;;;;;29.57;27.37;;;14.60;99.90;;;;;;4986073;28;20188;-87
2022/12/23 10:13:02;;;;;;;30.55;27.95;;;14.60;99.90;;;;;;5013616;28;20120;-87
2022/12/23 10:15:35;;;;;;;28.20;25.95;;;14.70;99.90;;;;;;4995590;28;20045;-88
2022/12/23 10:18:05;;;;;;;27.67;25.20;;;14.60;99.90;;;;;;4997334;28;20490;-86
2022/12/23 10:20:38;;;;;;;27.08;25.20;;;14.70;99.90;;;;;;5004098;28;20478;-94
2022/12/23 10:23:08;;;;;;;29.08;26.67;;;14.70;99.90;;;;;;4978903;28;20031;-92
2022/12/23 10:25:37;;;;;;;29.20;27.25;;;14.70;99.90;;;;;;5010721;28;20033;-91
2022/12/23 10:28:03;;;;;;;27.65;25.52;;;14.70;99.90;;;;;;4998223;28;20042;-90
2022/12/23 10:30:32;;;;;;;32.85;30.40;;;14.70;99.90;;;;;;5034373;28;20443;-92
2022/12/23 10:33:23;;;;;;;37.15;33.63;;;14.70;99.90;;;;;;5023974;28;20041;-90
2022/12/23 10:36:18;;;;;;;31.52;29.30;;;14.70;99.90;;;;;;5022179;28;20029;-90
2022/12/23 10:39:03;;;;;;;33.40;30.70;;;14.70;99.90;;;;;;5007615;28;20046;-91
2022/12/23 10:41:53;;;;;;;31.88;29.52;;;14.80;99.90;;;;;;5000570;28;20034;-90
2022/12/23 10:44:37;;;;;;;41.50;37.53;;;14.70;99.90;;;;;;5005318;28;20033;-89
2022/12/23 10:47:22;;;;;;;31.90;29.38;;;14.80;99.90;;;;;;5014747;28;20057;-89
2022/12/23 10:50:12;;;;;;;28.13;26.20;;;14.80;99.90;;;;;;5013834;28;20069;-89
2022/12/23 10:52:39;;;;;;;27.13;25.52;;;14.80;99.90;;;;;;5010683;28;20376;-89
2022/12/23 10:55:10;;;;;;;28.15;26.33;;;14.70;99.90;;;;;;4994501;28;20045;-88
2022/12/23 10:57:36;;;;;;;30.08;28.23;;;14.70;99.90;;;;;;4994170;28;20030;-87
2022/12/23 11:00:15;;;;;;;30.85;29.15;;;14.70;99.90;;;;;;4992618;28;20038;-86
2022/12/23 11:02:46;;;;;;;35.25;32.90;;;14.70;99.90;;;;;;4991947;28;20023;-87
2022/12/23 11:05:19;;;;;;;37.00;34.65;;;14.70;99.90;;;;;;4979632;28;20057;-87
2022/12/23 11:07:45;;;;;;;42.20;39.40;;;14.80;99.90;;;;;;5010723;28;20501;-89
2022/12/23 11:10:17;;;;;;;40.63;37.88;;;14.70;99.90;;;;;;4994632;28;20487;-89
2022/12/23 11:12:46;;;;;;;42.45;39.92;;;14.80;99.90;;;;;;4995704;28;20025;-88
2022/12/23 11:15:37;;;;;;;41.05;38.50;;;14.80;99.90;;;;;;4975624;28;20395;-89
2022/12/23 11:18:05;;;;;;;37.13;34.65;;;14.80;99.90;;;;;;5027145;28;20045;-89
2022/12/23 11:20:33;;;;;;;42.10;39.13;;;14.80;99.90;;;;;;5012127;28;20045;-90
2022/12/23 11:23:03;;;;;;;40.63;38.22;;;14.80;99.90;;;;;;4993840;28;20356;-89
2022/12/23 11:25:33;;;;;;;36.07;33.73;;;14.80;99.90;;;;;;4995695;28;20053;-90
2022/12/23 11:28:05;;;;;;;39.38;37.08;;;14.80;99.90;;;;;;5029612;28;20030;-92
2022/12/23 11:30:38;;;;;;;37.50;35.28;;;14.80;99.90;;;;;;4971741;28;20042;-94
2022/12/23 11:33:04;;;;;;;34.70;32.80;;;14.90;99.90;;;;;;4993624;28;20046;-92
2022/12/23 11:35:32;;;;;;;35.67;33.65;;;14.90;99.90;;;;;;4997565;28;20041;-93
2022/12/23 11:37:59;;;;;;;36.60;34.00;;;14.90;99.90;;;;;;5009311;28;20045;-92
2022/12/23 11:43:43;;;;;;;27.98;26.10;;;14.90;99.90;;;;;;5010517;28;20391;-90
2022/12/23 11:46:32;;;;;;;28.85;26.95;;;14.90;99.90;;;;;;4994887;28;20030;-91
2022/12/23 11:49:17;;;;;;;31.73;29.67;;;14.90;99.90;;;;;;4990335;28;20629;-90
2022/12/23 11:51:44;;;;;;;25.35;23.48;;;14.90;99.90;;;;;;5010447;28;20030;-89
2022/12/23 11:54:18;;;;;;;30.67;28.25;;;14.90;99.90;;;;;;5011058;28;20050;-89
2022/12/23 11:56:46;;;;;;;37.65;34.42;;;14.90;99.90;;;;;;5010107;28;20499;-87
2022/12/23 11:59:32;;;;;;;36.92;33.72;;;14.90;99.90;;;;;;5004517;28;20040;-89
2022/12/23 12:02:00;;;;;;;35.70;32.85;;;14.90;99.90;;;;;;4993868;28;20391;-86
2022/12/23 12:04:26;;;;;;;53.13;48.60;;;14.90;99.90;;;;;;5011152;28;20372;-86
2022/12/23 12:06:52;;;;;;;41.22;37.92;;;14.90;99.90;;;;;;5009919;28;20030;-89
2022/12/23 12:09:19;;;;;;;37.15;33.55;;;14.90;99.90;;;;;;4994530;28;20042;-88
2022/12/23 12:11:53;;;;;;;36.45;33.08;;;14.90;99.90;;;;;;5007570;28;20030;-88
2022/12/23 12:14:31;;;;;;;40.58;37.30;;;14.90;99.90;;;;;;5011670;28;20383;-88
2022/12/23 12:17:07;;;;;;;35.38;31.95;;;14.90;99.90;;;;;;5011668;28;20034;-87
2022/12/23 12:19:59;;;;;;;37.03;33.63;;;14.90;99.90;;;;;;5010341;28;20045;-87
2022/12/23 12:22:52;;;;;;;48.55;45.22;;;14.90;99.90;;;;;;5007031;28;20410;-88
2022/12/23 12:25:36;;;;;;;38.42;35.10;;;14.90;99.90;;;;;;5006596;28;20042;-88
2022/12/23 12:28:03;;;;;;;43.67;39.33;;;14.90;99.90;;;;;;4982989;28;20026;-88
2022/12/23 12:30:35;;;;;;;42.45;38.63;;;14.90;99.90;;;;;;4989056;28;20030;-88
2022/12/23 12:33:12;;;;;;;38.83;34.83;;;14.90;99.90;;;;;;5009494;28;20049;-87
2022/12/23 12:35:44;;;;;;;41.05;37.20;;;14.90;99.90;;;;;;5009081;28;20037;-86
2022/12/23 12:38:22;;;;;;;40.00;36.47;;;14.90;99.90;;;;;;5010090;28;20037;-87
2022/12/23 12:40:57;;;;;;;39.85;35.92;;;14.90;99.90;;;;;;5009710;28;20042;-87
2022/12/23 12:43:27;;;;;;;43.92;39.40;;;14.90;99.90;;;;;;4988453;28;20038;-87
2022/12/23 12:46:05;;;;;;;42.00;38.15;;;14.90;99.90;;;;;;4982058;28;20488;-86
2022/12/23 12:48:58;;;;;;;42.33;38.83;;;14.90;99.90;;;;;;4992636;28;20035;-87
2022/12/23 12:51:50;;;;;;;40.72;36.60;;;14.90;99.90;;;;;;4994146;28;20491;-87
2022/12/23 12:54:35;;;;;;;36.30;32.60;;;14.90;99.90;;;;;;5006255;28;20042;-87
2022/12/23 12:57:02;;;;;;;32.90;29.75;;;14.90;99.90;;;;;;5008867;28;20042;-87
2022/12/23 12:59:32;;;;;;;39.53;35.85;;;14.90;99.90;;;;;;4989266;28;20053;-87
2022/12/23 13:02:19;;;;;;;34.58;31.60;;;14.90;99.90;;;;;;5023233;28;20034;-87
2022/12/23 13:05:04;;;;;;;38.35;34.95;;;15.00;99.90;;;;;;5010081;28;20153;-87
2022/12/23 13:07:59;;;;;;;35.55;31.92;;;15.00;99.90;;;;;;5010391;28;20034;-86
2022/12/23 13:10:36;;;;;;;41.83;37.45;;;15.00;99.90;;;;;;4969523;28;20039;-86
2022/12/23 13:13:06;;;;;;;39.75;36.17;;;15.10;99.90;;;;;;4956742;28;20085;-87
2022/12/23 13:15:36;;;;;;;35.65;31.98;;;15.10;99.90;;;;;;4936964;28;20388;-87